Time;durP1;ratioP1;P1;durP2;ratioP2;P2;SDS_P1;SDS_P2;PMS_P1;PMS_P2;Temp;Humidity;BMP_temperature;BMP_pressure;BME280_temperature;BME280_humidity;BME280_pressure;Samples;Min_cycle;Max_cycle;Signal;HPM_P1;HPM_P2
2022/07/09 00:02:11;;;;;;;2.00;1.30;;;;;;;;;;5076974;28;20208;-82
2022/07/09 00:04:40;;;;;;;1.73;1.35;;;;;;;;;;5077577;28;20252;-82
2022/07/09 00:07:07;;;;;;;1.25;1.15;;;;;;;;;;5077924;28;20615;-82
2022/07/09 00:09:35;;;;;;;1.38;1.20;;;;;;;;;;5076899;28;20205;-83
2022/07/09 00:12:02;;;;;;;2.65;1.60;;;;;;;;;;5076855;28;20288;-84
2022/07/09 00:14:30;;;;;;;2.03;1.70;;;;;;;;;;5076829;28;20239;-82
2022/07/09 00:16:58;;;;;;;1.50;1.40;;;;;;;;;;5077703;28;20209;-82
2022/07/09 00:19:25;;;;;;;1.58;1.33;;;;;;;;;;5077003;28;20626;-81
2022/07/09 00:21:54;;;;;;;1.38;1.27;;;;;;;;;;5077144;28;20232;-82
2022/07/09 00:24:22;;;;;;;2.80;1.67;;;;;;;;;;5077218;28;20221;-81
2022/07/09 00:26:49;;;;;;;1.92;1.30;;;;;;;;;;5076308;28;20299;-81
2022/07/09 00:29:17;;;;;;;2.78;1.58;;;;;;;;;;5076835;28;20284;-81
2022/07/09 00:31:45;;;;;;;3.60;1.40;;;;;;;;;;5075451;28;20235;-82
2022/07/09 00:34:13;;;;;;;3.50;1.75;;;;;;;;;;5076737;28;20327;-81
2022/07/09 00:36:40;;;;;;;2.30;1.40;;;;;;;;;;5076300;28;20292;-82
2022/07/09 00:39:09;;;;;;;4.35;1.60;;;;;;;;;;5076654;28;20721;-82
2022/07/09 00:41:37;;;;;;;2.72;2.15;;;;;;;;;;5076851;28;20236;-81
2022/07/09 00:44:05;;;;;;;2.10;1.58;;;;;;;;;;5075920;28;20319;-81
2022/07/09 00:46:32;;;;;;;3.20;1.42;;;;;;;;;;5076758;28;20201;-82
2022/07/09 00:49:03;;;;;;;2.47;1.20;;;;;;;;;;5077048;28;20642;-83
2022/07/09 00:51:32;;;;;;;2.50;1.90;;;;;;;;;;5076685;28;20672;-82
2022/07/09 00:54:01;;;;;;;1.85;1.75;;;;;;;;;;5076466;28;20229;-82
2022/07/09 00:56:31;;;;;;;1.73;1.50;;;;;;;;;;5077142;28;20239;-84
2022/07/09 00:59:00;;;;;;;1.63;1.40;;;;;;;;;;5076387;28;20272;-84
2022/07/09 01:01:28;;;;;;;2.92;1.35;;;;;;;;;;5076008;28;20228;-84
2022/07/09 01:03:56;;;;;;;2.15;1.35;;;;;;;;;;5076074;28;20205;-84
2022/07/09 01:06:23;;;;;;;1.73;1.63;;;;;;;;;;5076280;28;20292;-84
2022/07/09 01:08:51;;;;;;;1.23;1.17;;;;;;;;;;5075808;28;20292;-84
2022/07/09 01:11:18;;;;;;;1.65;1.55;;;;;;;;;;5075607;28;20201;-83
2022/07/09 01:13:47;;;;;;;3.03;1.58;;;;;;;;;;5075825;28;20639;-83
2022/07/09 01:16:15;;;;;;;1.70;1.60;;;;;;;;;;5075968;28;20778;-83
2022/07/09 01:18:45;;;;;;;1.95;1.70;;;;;;;;;;5059160;28;20288;-84
2022/07/09 01:21:15;;;;;;;1.27;1.17;;;;;;;;;;5056339;28;20217;-83
2022/07/09 01:23:43;;;;;;;2.05;1.52;;;;;;;;;;5056345;28;20296;-82
2022/07/09 01:26:11;;;;;;;1.30;1.20;;;;;;;;;;5056435;28;20285;-83
2022/07/09 01:28:38;;;;;;;1.00;1.00;;;;;;;;;;5056184;28;20198;-82
2022/07/09 01:31:06;;;;;;;1.17;1.15;;;;;;;;;;5055150;28;20643;-83
2022/07/09 01:33:34;;;;;;;1.30;1.20;;;;;;;;;;5055942;28;20703;-82
2022/07/09 01:36:01;;;;;;;0.90;0.90;;;;;;;;;;5056088;28;20230;-83
2022/07/09 01:38:30;;;;;;;1.35;1.02;;;;;;;;;;5055839;28;20292;-81
2022/07/09 01:40:58;;;;;;;1.40;1.30;;;;;;;;;;5057127;28;20244;-82
2022/07/09 01:43:25;;;;;;;1.60;1.50;;;;;;;;;;5055929;28;20288;-82
2022/07/09 01:45:53;;;;;;;2.08;1.58;;;;;;;;;;5055861;28;20663;-82
2022/07/09 01:48:20;;;;;;;1.25;1.25;;;;;;;;;;5069863;28;20288;-82
2022/07/09 01:50:48;;;;;;;1.25;1.15;;;;;;;;;;5076020;28;20729;-81
2022/07/09 01:53:15;;;;;;;1.20;1.10;;;;;;;;;;5075767;28;20280;-82
2022/07/09 01:55:44;;;;;;;1.88;1.70;;;;;;;;;;5075448;28;20319;-83
2022/07/09 01:58:13;;;;;;;1.35;1.25;;;;;;;;;;5075464;28;20288;-82
2022/07/09 02:00:41;;;;;;;0.95;0.95;;;;;;;;;;5076156;28;20205;-82
2022/07/09 02:03:09;;;;;;;2.45;1.60;;;;;;;;;;5075313;28;20657;-81
2022/07/09 02:05:36;;;;;;;2.05;1.45;;;;;;;;;;5075965;28;20255;-82
2022/07/09 02:08:04;;;;;;;2.28;1.60;;;;;;;;;;5075979;28;20283;-83
2022/07/09 02:10:32;;;;;;;1.55;1.27;;;;;;;;;;5075909;28;20292;-84
2022/07/09 02:13:01;;;;;;;2.08;1.27;;;;;;;;;;5075217;28;20292;-82
2022/07/09 02:15:28;;;;;;;1.30;1.15;;;;;;;;;;5075584;28;20311;-84
2022/07/09 02:17:56;;;;;;;1.63;1.52;;;;;;;;;;5075307;28;20240;-84
2022/07/09 02:20:24;;;;;;;1.85;1.60;;;;;;;;;;5076101;28;20754;-82
2022/07/09 02:22:51;;;;;;;2.70;2.03;;;;;;;;;;5075604;28;20220;-82
2022/07/09 02:25:19;;;;;;;2.28;2.00;;;;;;;;;;5075799;28;20236;-82
2022/07/09 02:27:46;;;;;;;1.50;1.35;;;;;;;;;;5075665;28;20288;-83
2022/07/09 02:30:15;;;;;;;1.42;1.27;;;;;;;;;;5074676;28;20244;-84
2022/07/09 02:32:43;;;;;;;1.65;1.55;;;;;;;;;;5073818;28;20287;-83
2022/07/09 02:35:11;;;;;;;2.30;1.55;;;;;;;;;;5075009;28;20228;-82
2022/07/09 02:37:38;;;;;;;2.80;2.17;;;;;;;;;;5076051;28;20296;-83
2022/07/09 02:40:08;;;;;;;2.10;1.90;;;;;;;;;;5075585;28;20697;-81
2022/07/09 02:42:36;;;;;;;1.80;1.70;;;;;;;;;;5074894;28;20287;-83
2022/07/09 02:45:04;;;;;;;2.67;1.80;;;;;;;;;;5083698;23;20232;-76
2022/07/09 02:47:33;;;;;;;1.20;1.13;;;;;;;;;;5069541;28;20307;-77
2022/07/09 02:50:01;;;;;;;2.03;1.42;;;;;;;;;;5053139;28;20218;-78
2022/07/09 02:52:28;;;;;;;6.72;1.77;;;;;;;;;;5031583;28;20620;-78
2022/07/09 02:54:56;;;;;;;2.10;2.00;;;;;;;;;;5032901;28;20721;-78
2022/07/09 02:57:23;;;;;;;1.30;1.20;;;;;;;;;;5032746;28;20305;-78
2022/07/09 02:59:51;;;;;;;1.73;1.63;;;;;;;;;;5032548;28;20218;-77
2022/07/09 03:02:18;;;;;;;2.05;1.83;;;;;;;;;;5031670;28;20294;-77
2022/07/09 03:04:47;;;;;;;2.15;1.95;;;;;;;;;;5033015;28;20730;-79
2022/07/09 03:07:15;;;;;;;2.10;2.00;;;;;;;;;;5032544;28;20285;-77
2022/07/09 03:09:42;;;;;;;2.08;1.88;;;;;;;;;;5032599;28;20315;-79
2022/07/09 03:12:10;;;;;;;2.25;2.03;;;;;;;;;;5032129;28;20297;-77
2022/07/09 03:14:38;;;;;;;2.35;2.00;;;;;;;;;;5032527;28;20253;-77
2022/07/09 03:17:06;;;;;;;2.55;1.80;;;;;;;;;;5036093;28;20257;-78
2022/07/09 03:19:33;;;;;;;2.30;2.10;;;;;;;;;;5051633;28;20959;-77
2022/07/09 03:22:02;;;;;;;1.30;1.27;;;;;;;;;;5051544;28;20292;-78
2022/07/09 03:24:30;;;;;;;1.80;1.70;;;;;;;;;;5052641;28;20289;-79
2022/07/09 03:26:57;;;;;;;2.22;1.52;;;;;;;;;;5052439;28;20224;-78
2022/07/09 03:29:25;;;;;;;2.70;1.83;;;;;;;;;;5050339;28;20264;-76
2022/07/09 03:31:52;;;;;;;1.60;1.50;;;;;;;;;;5050181;28;20639;-77
2022/07/09 03:34:20;;;;;;;1.30;1.20;;;;;;;;;;5052541;28;20252;-77
2022/07/09 03:36:47;;;;;;;1.10;1.10;;;;;;;;;;5052361;28;20222;-78
2022/07/09 03:39:16;;;;;;;0.90;0.90;;;;;;;;;;5051638;28;20264;-77
2022/07/09 03:41:44;;;;;;;1.65;1.55;;;;;;;;;;5051609;28;20209;-79
2022/07/09 03:44:11;;;;;;;1.67;1.58;;;;;;;;;;5052075;28;20296;-77
2022/07/09 03:46:39;;;;;;;1.40;1.30;;;;;;;;;;5052033;28;20293;-78
2022/07/09 03:49:06;;;;;;;1.50;1.40;;;;;;;;;;5051814;28;20788;-76
2022/07/09 03:51:34;;;;;;;2.25;1.35;;;;;;;;;;5051354;28;20288;-77
2022/07/09 03:54:01;;;;;;;0.95;0.95;;;;;;;;;;5051811;28;20251;-77
2022/07/09 03:56:30;;;;;;;1.35;1.25;;;;;;;;;;5051582;28;20222;-78
2022/07/09 03:58:57;;;;;;;2.45;1.60;;;;;;;;;;5051942;28;20309;-77
2022/07/09 04:01:25;;;;;;;1.70;1.60;;;;;;;;;;5053027;28;20244;-79
2022/07/09 04:03:52;;;;;;;2.15;1.95;;;;;;;;;;5054914;28;20233;-77
2022/07/09 04:06:20;;;;;;;2.42;2.22;;;;;;;;;;5055447;28;20400;-77
2022/07/09 04:08:48;;;;;;;3.63;2.80;;;;;;;;;;5055065;28;20205;-77
2022/07/09 04:11:15;;;;;;;3.17;2.70;;;;;;;;;;5056709;28;20233;-79
2022/07/09 04:13:44;;;;;;;3.53;2.97;;;;;;;;;;5056377;28;20288;-78
2022/07/09 04:16:11;;;;;;;2.78;2.58;;;;;;;;;;5057260;28;20252;-78
2022/07/09 04:18:42;;;;;;;3.05;2.75;;;;;;;;;;5056538;28;20265;-79
2022/07/09 04:21:10;;;;;;;3.90;2.95;;;;;;;;;;5057307;28;20205;-79
2022/07/09 04:23:37;;;;;;;2.72;2.50;;;;;;;;;;5056948;28;20207;-78
2022/07/09 04:26:05;;;;;;;2.13;1.90;;;;;;;;;;5057954;28;20384;-79
2022/07/09 04:28:33;;;;;;;2.05;1.95;;;;;;;;;;5057120;28;20205;-79
2022/07/09 04:31:02;;;;;;;2.85;2.33;;;;;;;;;;5055130;28;20201;-77
2022/07/09 04:33:29;;;;;;;3.40;3.10;;;;;;;;;;5056131;28;20760;-78
2022/07/09 04:35:57;;;;;;;1.95;1.85;;;;;;;;;;5057277;28;20241;-78
2022/07/09 04:38:24;;;;;;;2.25;2.10;;;;;;;;;;5056963;28;20253;-77
2022/07/09 04:40:52;;;;;;;2.83;2.28;;;;;;;;;;5056741;28;20312;-79
2022/07/09 04:43:19;;;;;;;2.03;1.92;;;;;;;;;;5055929;28;20666;-79
2022/07/09 04:45:47;;;;;;;3.60;3.20;;;;;;;;;;5056797;28;20308;-78
2022/07/09 04:48:16;;;;;;;2.40;2.10;;;;;;;;;;5057189;28;20240;-79
2022/07/09 04:50:43;;;;;;;3.08;2.75;;;;;;;;;;5057149;28;20244;-78
2022/07/09 04:53:11;;;;;;;2.30;2.20;;;;;;;;;;5055633;28;20288;-78
2022/07/09 04:55:38;;;;;;;2.75;2.55;;;;;;;;;;5059479;28;20202;-77
2022/07/09 04:58:06;;;;;;;2.30;2.13;;;;;;;;;;5059225;28;20694;-79
2022/07/09 05:00:34;;;;;;;3.03;2.75;;;;;;;;;;5060484;28;20229;-78
2022/07/09 05:03:01;;;;;;;3.60;3.30;;;;;;;;;;5061552;28;20198;-78
2022/07/09 05:05:30;;;;;;;4.20;3.00;;;;;;;;;;5057218;28;20292;-78
2022/07/09 05:07:58;;;;;;;3.30;3.00;;;;;;;;;;5055812;28;20626;-78
2022/07/09 05:10:26;;;;;;;2.00;1.90;;;;;;;;;;5054740;28;20312;-78
2022/07/09 05:12:53;;;;;;;2.53;2.33;;;;;;;;;;5053673;28;20202;-78
2022/07/09 05:15:22;;;;;;;3.67;3.35;;;;;;;;;;5055131;28;20294;-78
2022/07/09 05:17:49;;;;;;;2.80;2.55;;;;;;;;;;5054624;28;20314;-79
2022/07/09 05:20:17;;;;;;;3.58;3.28;;;;;;;;;;5102696;22;20316;-79
2022/07/09 05:22:46;;;;;;;3.75;3.17;;;;;;;;;;5097869;28;20287;-79
2022/07/09 05:25:13;;;;;;;2.88;2.67;;;;;;;;;;5098237;28;20206;-79
2022/07/09 05:27:45;;;;;;;3.42;3.05;;;;;;;;;;5097088;28;20203;-79
2022/07/09 05:30:14;;;;;;;2.83;2.63;;;;;;;;;;5097045;28;20203;-79
2022/07/09 05:32:42;;;;;;;2.47;2.28;;;;;;;;;;5097800;28;20234;-78
2022/07/09 05:35:10;;;;;;;2.78;2.58;;;;;;;;;;5095474;28;20243;-78
2022/07/09 05:37:42;;;;;;;3.08;2.85;;;;;;;;;;5095986;28;20315;-78
2022/07/09 05:40:13;;;;;;;2.47;2.30;;;;;;;;;;5095670;28;20192;-78
2022/07/09 05:42:41;;;;;;;3.38;2.63;;;;;;;;;;5095334;28;20253;-79
2022/07/09 05:45:10;;;;;;;4.25;2.75;;;;;;;;;;5095041;28;20273;-78
2022/07/09 05:47:38;;;;;;;3.15;2.80;;;;;;;;;;5095062;28;20279;-78
2022/07/09 05:50:06;;;;;;;3.03;2.75;;;;;;;;;;5094167;28;20243;-78
2022/07/09 05:52:34;;;;;;;2.70;2.33;;;;;;;;;;5094078;28;20287;-78
2022/07/09 05:55:03;;;;;;;4.47;2.85;;;;;;;;;;5094244;28;20208;-78
2022/07/09 05:57:32;;;;;;;3.45;3.15;;;;;;;;;;5094245;28;20224;-78
2022/07/09 05:59:59;;;;;;;2.67;2.45;;;;;;;;;;5095332;28;20233;-78
2022/07/09 06:02:27;;;;;;;2.80;2.60;;;;;;;;;;5094655;28;20283;-79
2022/07/09 06:04:54;;;;;;;2.95;2.75;;;;;;;;;;5094660;28;20216;-78
2022/07/09 06:07:22;;;;;;;3.63;2.63;;;;;;;;;;5093695;28;20307;-78
2022/07/09 06:09:49;;;;;;;2.83;2.63;;;;;;;;;;5094209;28;20286;-77
2022/07/09 06:12:17;;;;;;;2.75;2.55;;;;;;;;;;5094091;28;20291;-78
2022/07/09 06:14:45;;;;;;;1.85;1.67;;;;;;;;;;5094705;28;20286;-78
2022/07/09 06:17:13;;;;;;;2.58;2.38;;;;;;;;;;5094136;28;20267;-78
2022/07/09 06:19:40;;;;;;;2.65;2.25;;;;;;;;;;5094562;28;20739;-78
2022/07/09 06:22:08;;;;;;;2.88;2.50;;;;;;;;;;5095043;28;20303;-78
2022/07/09 06:24:36;;;;;;;2.67;2.10;;;;;;;;;;5093804;28;20203;-78
2022/07/09 06:27:03;;;;;;;1.83;1.73;;;;;;;;;;5094696;28;20665;-78
2022/07/09 06:29:31;;;;;;;3.33;2.13;;;;;;;;;;5094778;28;20626;-78
2022/07/09 06:32:00;;;;;;;2.42;2.20;;;;;;;;;;5093968;28;20235;-78
2022/07/09 06:34:28;;;;;;;2.83;1.88;;;;;;;;;;5094326;28;20202;-78
2022/07/09 06:36:55;;;;;;;2.45;2.13;;;;;;;;;;5094602;28;20247;-78
2022/07/09 06:42:08;;;;;;;2.70;2.50;;;;;;;;;;5095774;28;20655;-78
2022/07/09 06:44:36;;;;;;;3.00;2.70;;;;;;;;;;5096310;28;20232;-79
2022/07/09 06:47:06;;;;;;;3.17;2.60;;;;;;;;;;5095425;28;20304;-78
2022/07/09 06:49:34;;;;;;;2.58;2.38;;;;;;;;;;5097082;28;20233;-78
2022/07/09 06:52:02;;;;;;;4.45;2.47;;;;;;;;;;5094702;28;20239;-78
2022/07/09 06:54:30;;;;;;;2.95;2.40;;;;;;;;;;5093981;28;20240;-78
2022/07/09 06:56:58;;;;;;;2.90;2.28;;;;;;;;;;5094095;28;20224;-79
2022/07/09 06:59:25;;;;;;;2.38;2.20;;;;;;;;;;5094102;28;20307;-78
2022/07/09 07:01:53;;;;;;;2.70;2.47;;;;;;;;;;5093928;28;20206;-78
2022/07/09 07:04:22;;;;;;;2.03;1.88;;;;;;;;;;5094350;28;20296;-78
2022/07/09 07:06:50;;;;;;;2.15;1.92;;;;;;;;;;5094183;28;20303;-78
2022/07/09 07:09:18;;;;;;;2.08;1.60;;;;;;;;;;5094305;28;20231;-78
2022/07/09 07:11:46;;;;;;;2.25;2.08;;;;;;;;;;5093686;28;20204;-78
2022/07/09 07:14:13;;;;;;;2.15;1.83;;;;;;;;;;5094299;28;20230;-79
2022/07/09 07:16:41;;;;;;;2.30;2.15;;;;;;;;;;5095998;28;20651;-78
2022/07/09 07:19:08;;;;;;;4.55;3.75;;;;;;;;;;5094151;28;20310;-78
2022/07/09 07:21:37;;;;;;;2.00;1.90;;;;;;;;;;5093916;28;20204;-78
2022/07/09 07:24:06;;;;;;;1.70;1.60;;;;;;;;;;5095019;28;20296;-78
2022/07/09 07:26:34;;;;;;;2.40;2.20;;;;;;;;;;5093626;28;20307;-79
2022/07/09 07:29:01;;;;;;;2.22;2.13;;;;;;;;;;5093297;28;20224;-77
2022/07/09 07:31:29;;;;;;;4.22;1.58;;;;;;;;;;5093180;28;20283;-78
2022/07/09 07:33:56;;;;;;;1.92;1.83;;;;;;;;;;5092641;28;20291;-78
2022/07/09 07:36:24;;;;;;;2.13;1.75;;;;;;;;;;5093709;28;20299;-78
2022/07/09 07:38:53;;;;;;;2.33;1.77;;;;;;;;;;5096523;28;20311;-78
2022/07/09 07:41:20;;;;;;;2.13;1.67;;;;;;;;;;5096283;28;20204;-77
2022/07/09 07:43:48;;;;;;;1.60;1.50;;;;;;;;;;5095315;28;20200;-77
2022/07/09 07:46:16;;;;;;;1.30;1.20;;;;;;;;;;5095758;28;20659;-77
2022/07/09 07:48:43;;;;;;;1.70;1.60;;;;;;;;;;5095688;28;20220;-77
2022/07/09 07:51:11;;;;;;;1.48;1.38;;;;;;;;;;5095839;28;20275;-77
2022/07/09 07:53:39;;;;;;;1.55;1.45;;;;;;;;;;5095639;28;20196;-77
2022/07/09 07:56:09;;;;;;;1.77;1.35;;;;;;;;;;5095667;28;20226;-77
2022/07/09 07:58:37;;;;;;;1.38;1.17;;;;;;;;;;5095328;28;20221;-77
2022/07/09 08:01:04;;;;;;;0.90;0.90;;;;;;;;;;5095344;28;20298;-78
2022/07/09 08:03:32;;;;;;;1.23;1.20;;;;;;;;;;5095770;28;20292;-77
2022/07/09 08:05:59;;;;;;;1.20;1.20;;;;;;;;;;5095186;28;20234;-76
2022/07/09 08:08:27;;;;;;;1.60;1.30;;;;;;;;;;5095463;28;20631;-78
2022/07/09 08:10:55;;;;;;;1.75;1.05;;;;;;;;;;5095223;28;20673;-77
2022/07/09 08:13:24;;;;;;;1.20;1.00;;;;;;;;;;5095449;28;20720;-77
2022/07/09 08:15:51;;;;;;;0.90;0.90;;;;;;;;;;5095732;28;20299;-78
2022/07/09 08:18:19;;;;;;;1.80;0.95;;;;;;;;;;5094820;28;20287;-77
2022/07/09 08:20:47;;;;;;;0.80;0.80;;;;;;;;;;5094651;28;20654;-77
2022/07/09 08:23:15;;;;;;;0.90;0.90;;;;;;;;;;5095484;28;20200;-77
2022/07/09 08:25:42;;;;;;;0.80;0.80;;;;;;;;;;5095082;28;20353;-77
2022/07/09 08:28:09;;;;;;;0.95;0.95;;;;;;;;;;5094659;28;20201;-78
2022/07/09 08:30:38;;;;;;;0.88;0.88;;;;;;;;;;5094840;28;20295;-78
2022/07/09 08:33:06;;;;;;;0.80;0.80;;;;;;;;;;5093405;28;20315;-77
2022/07/09 08:35:34;;;;;;;0.70;0.70;;;;;;;;;;5094555;28;20315;-77
2022/07/09 08:38:02;;;;;;;0.77;0.77;;;;;;;;;;5095354;28;20290;-78
2022/07/09 08:40:30;;;;;;;1.02;0.93;;;;;;;;;;5095564;28;20247;-78
2022/07/09 08:42:58;;;;;;;0.90;0.90;;;;;;;;;;5095258;28;20287;-77
2022/07/09 08:45:33;;;;;;;1.10;1.00;;;;;;;;;;5095416;28;20307;-82
2022/07/09 08:48:05;;;;;;;0.82;0.82;;;;;;;;;;5081904;28;20189;-77
2022/07/09 08:50:33;;;;;;;0.70;0.70;;;;;;;;;;5082170;28;20188;-77
2022/07/09 08:53:01;;;;;;;0.70;0.70;;;;;;;;;;5081182;28;20236;-79
2022/07/09 08:55:31;;;;;;;1.10;1.10;;;;;;;;;;5081226;28;20716;-79
2022/07/09 08:57:59;;;;;;;0.60;0.60;;;;;;;;;;5080108;28;20567;-78
2022/07/09 09:00:27;;;;;;;1.17;0.93;;;;;;;;;;5079636;28;20723;-81
2022/07/09 09:02:54;;;;;;;0.70;0.70;;;;;;;;;;5079872;28;20803;-78
2022/07/09 09:05:23;;;;;;;1.10;0.98;;;;;;;;;;5077809;28;20288;-79
2022/07/09 09:07:51;;;;;;;1.60;1.10;;;;;;;;;;5078958;28;20205;-81
2022/07/09 09:10:25;;;;;;;1.77;1.45;;;;;;;;;;5079500;28;20319;-82
2022/07/09 09:12:58;;;;;;;1.45;1.35;;;;;;;;;;5080951;28;20571;-79
2022/07/09 09:15:26;;;;;;;1.35;1.25;;;;;;;;;;5081916;28;20248;-78
2022/07/09 09:17:54;;;;;;;0.90;0.90;;;;;;;;;;5083456;28;20208;-79
2022/07/09 09:20:24;;;;;;;1.08;0.98;;;;;;;;;;5083915;28;20600;-78
2022/07/09 09:22:59;;;;;;;1.40;1.30;;;;;;;;;;5081897;28;20232;-79
2022/07/09 09:25:27;;;;;;;1.30;1.20;;;;;;;;;;5083859;28;20216;-78
2022/07/09 09:27:56;;;;;;;1.20;1.20;;;;;;;;;;5081537;28;20201;-77
2022/07/09 09:30:24;;;;;;;1.15;1.10;;;;;;;;;;5082394;28;20228;-77
2022/07/09 09:32:59;;;;;;;1.55;1.35;;;;;;;;;;5081773;28;20247;-78
2022/07/09 09:35:30;;;;;;;1.10;1.10;;;;;;;;;;5081620;28;20251;-79
2022/07/09 09:37:58;;;;;;;1.00;1.00;;;;;;;;;;5081826;28;20189;-78
2022/07/09 09:40:27;;;;;;;0.98;0.98;;;;;;;;;;5079988;28;20759;-78
2022/07/09 09:42:56;;;;;;;1.40;1.00;;;;;;;;;;5082610;28;20201;-80
2022/07/09 09:45:24;;;;;;;1.60;1.08;;;;;;;;;;5082443;28;21550;-78
2022/07/09 09:47:53;;;;;;;1.10;1.10;;;;;;;;;;5090444;28;20230;-77
2022/07/09 09:50:22;;;;;;;1.10;0.93;;;;;;;;;;5101600;28;20239;-78
2022/07/09 09:52:52;;;;;;;0.88;0.88;;;;;;;;;;5101763;28;20244;-77
2022/07/09 09:55:21;;;;;;;0.80;0.80;;;;;;;;;;5101615;28;20615;-78
2022/07/09 09:57:50;;;;;;;1.05;1.05;;;;;;;;;;5102573;28;20626;-79
2022/07/09 10:00:18;;;;;;;0.93;0.93;;;;;;;;;;5101649;28;20255;-78
2022/07/09 10:02:47;;;;;;;1.20;1.10;;;;;;;;;;5102186;28;20227;-79
2022/07/09 10:05:15;;;;;;;1.15;1.10;;;;;;;;;;5102553;28;20263;-78
2022/07/09 10:07:43;;;;;;;1.10;1.10;;;;;;;;;;5102315;28;20672;-79
2022/07/09 10:10:19;;;;;;;0.90;0.90;;;;;;;;;;5102540;28;20609;-78
2022/07/09 10:12:47;;;;;;;1.30;1.20;;;;;;;;;;5102070;28;20184;-79
2022/07/09 10:15:23;;;;;;;1.10;1.10;;;;;;;;;;5101330;28;20231;-79
2022/07/09 10:17:51;;;;;;;1.20;1.10;;;;;;;;;;5101429;28;20196;-79
2022/07/09 10:20:18;;;;;;;1.23;1.13;;;;;;;;;;5100519;28;20730;-78
2022/07/09 10:22:49;;;;;;;1.33;1.23;;;;;;;;;;5102764;28;20228;-79
2022/07/09 10:25:30;;;;;;;1.02;1.02;;;;;;;;;;5101547;28;20231;-78
2022/07/09 10:27:58;;;;;;;1.20;1.13;;;;;;;;;;5101461;28;20202;-79
2022/07/09 10:30:27;;;;;;;1.40;1.00;;;;;;;;;;5100224;28;20235;-78
2022/07/09 10:33:06;;;;;;;1.20;0.90;;;;;;;;;;5101203;28;20200;-77
2022/07/09 10:35:41;;;;;;;1.10;0.73;;;;;;;;;;5100667;28;20219;-79
2022/07/09 10:38:09;;;;;;;1.45;1.35;;;;;;;;;;5101295;28;20181;-78
2022/07/09 10:40:43;;;;;;;1.02;1.02;;;;;;;;;;5100221;28;20251;-79
2022/07/09 10:43:12;;;;;;;1.00;1.00;;;;;;;;;;5100599;28;20264;-77
2022/07/09 10:45:41;;;;;;;0.73;0.73;;;;;;;;;;5100601;28;20243;-78
2022/07/09 10:48:11;;;;;;;0.90;0.90;;;;;;;;;;5100442;28;20238;-79
2022/07/09 10:50:43;;;;;;;1.10;1.08;;;;;;;;;;5101227;28;20227;-78
2022/07/09 10:53:12;;;;;;;1.63;1.52;;;;;;;;;;5101021;28;20228;-79
2022/07/09 10:55:45;;;;;;;0.90;0.90;;;;;;;;;;5101209;28;20246;-78
2022/07/09 10:58:19;;;;;;;0.90;0.90;;;;;;;;;;5100848;28;20287;-78
2022/07/09 11:00:46;;;;;;;0.80;0.80;;;;;;;;;;5101185;28;20562;-77
2022/07/09 11:03:14;;;;;;;0.82;0.82;;;;;;;;;;5095035;28;20254;-80
2022/07/09 11:05:46;;;;;;;1.00;1.00;;;;;;;;;;5097657;28;20243;-78
2022/07/09 11:08:14;;;;;;;1.30;1.25;;;;;;;;;;5100768;28;20200;-78
2022/07/09 11:10:42;;;;;;;0.95;0.90;;;;;;;;;;5101479;28;20306;-77
2022/07/09 11:13:11;;;;;;;0.80;0.80;;;;;;;;;;5105576;28;20238;-79
2022/07/09 11:15:40;;;;;;;1.00;0.85;;;;;;;;;;5105435;28;20273;-79
2022/07/09 11:18:09;;;;;;;1.00;1.00;;;;;;;;;;5104033;28;20571;-78
2022/07/09 11:20:41;;;;;;;1.45;1.35;;;;;;;;;;5104448;28;20255;-79
2022/07/09 11:23:10;;;;;;;0.80;0.80;;;;;;;;;;5104139;28;20191;-78
2022/07/09 11:25:37;;;;;;;0.80;0.80;;;;;;;;;;5104173;28;20312;-78
2022/07/09 11:28:05;;;;;;;0.90;0.90;;;;;;;;;;5105580;28;20291;-79
2022/07/09 11:30:36;;;;;;;0.80;0.80;;;;;;;;;;5103138;28;20239;-79
2022/07/09 11:33:04;;;;;;;0.88;0.88;;;;;;;;;;5104683;28;20519;-79
2022/07/09 11:35:33;;;;;;;0.70;0.70;;;;;;;;;;5105032;28;20240;-78
2022/07/09 11:38:03;;;;;;;1.10;1.00;;;;;;;;;;5103930;28;20208;-78
2022/07/09 11:40:31;;;;;;;0.90;0.90;;;;;;;;;;5103756;28;20220;-77
2022/07/09 11:42:59;;;;;;;1.10;1.00;;;;;;;;;;5104535;28;20228;-78
2022/07/09 11:45:29;;;;;;;1.20;1.20;;;;;;;;;;5104268;28;20275;-79
2022/07/09 11:48:09;;;;;;;0.80;0.80;;;;;;;;;;5103438;28;20220;-78
2022/07/09 11:50:44;;;;;;;1.95;1.10;;;;;;;;;;5103258;28;20271;-79
2022/07/09 11:53:21;;;;;;;0.90;0.90;;;;;;;;;;5103517;28;20220;-79
2022/07/09 11:56:00;;;;;;;1.25;0.90;;;;;;;;;;5103893;28;20235;-78
2022/07/09 11:58:28;;;;;;;1.23;1.05;;;;;;;;;;5102613;28;20184;-78
2022/07/09 12:00:55;;;;;;;0.93;0.73;;;;;;;;;;5102812;28;20735;-78
2022/07/09 12:03:29;;;;;;;0.88;0.88;;;;;;;;;;5103323;28;20235;-79
2022/07/09 12:05:57;;;;;;;1.10;1.10;;;;;;;;;;5102950;28;20216;-79
2022/07/09 12:08:29;;;;;;;0.82;0.82;;;;;;;;;;5102071;28;20227;-80
2022/07/09 12:10:57;;;;;;;1.20;1.20;;;;;;;;;;5103410;28;20656;-78
2022/07/09 12:13:25;;;;;;;1.40;1.30;;;;;;;;;;5102627;28;20220;-79
2022/07/09 12:15:53;;;;;;;1.38;1.00;;;;;;;;;;5103309;28;20244;-77
2022/07/09 12:18:20;;;;;;;0.80;0.80;;;;;;;;;;5103466;28;20261;-78
2022/07/09 12:20:49;;;;;;;1.67;1.58;;;;;;;;;;5092711;28;20244;-79
2022/07/09 12:23:17;;;;;;;1.23;1.23;;;;;;;;;;5083469;28;20220;-79
2022/07/09 12:25:45;;;;;;;1.15;1.10;;;;;;;;;;5082180;28;20639;-78
2022/07/09 12:28:12;;;;;;;1.40;1.30;;;;;;;;;;5082407;28;20236;-78
2022/07/09 12:30:40;;;;;;;0.85;0.85;;;;;;;;;;5083690;28;20185;-78
2022/07/09 12:33:08;;;;;;;0.98;0.98;;;;;;;;;;5083172;28;20211;-77
2022/07/09 12:35:35;;;;;;;1.83;0.90;;;;;;;;;;5093460;28;20251;-79
2022/07/09 12:38:04;;;;;;;1.10;1.00;;;;;;;;;;5103207;28;20634;-78
2022/07/09 12:40:31;;;;;;;0.90;0.90;;;;;;;;;;5102363;28;20736;-78
2022/07/09 12:42:59;;;;;;;1.08;0.98;;;;;;;;;;5102180;28;20260;-79
2022/07/09 12:45:26;;;;;;;2.20;1.20;;;;;;;;;;5102692;28;20228;-79
2022/07/09 12:47:55;;;;;;;0.98;0.98;;;;;;;;;;5102215;28;20201;-79
2022/07/09 12:50:23;;;;;;;1.83;0.90;;;;;;;;;;5102605;28;20298;-78
2022/07/09 12:52:51;;;;;;;1.13;1.02;;;;;;;;;;5101246;28;20235;-79
2022/07/09 12:55:20;;;;;;;1.60;1.50;;;;;;;;;;5101197;28;20209;-78
2022/07/09 12:57:48;;;;;;;1.35;1.15;;;;;;;;;;5102830;28;20283;-79
2022/07/09 13:00:16;;;;;;;1.45;1.30;;;;;;;;;;5100731;28;20224;-78
2022/07/09 13:02:44;;;;;;;0.90;0.90;;;;;;;;;;5101234;28;20220;-78
2022/07/09 13:05:14;;;;;;;1.23;1.10;;;;;;;;;;5099447;28;20235;-77
2022/07/09 13:07:42;;;;;;;1.73;1.40;;;;;;;;;;5100188;28;20196;-79
2022/07/09 13:10:10;;;;;;;1.25;1.15;;;;;;;;;;5098809;28;20287;-79
2022/07/09 13:12:38;;;;;;;1.20;1.10;;;;;;;;;;5098534;28;20253;-78
2022/07/09 13:15:07;;;;;;;1.20;1.10;;;;;;;;;;5099505;28;20299;-79
2022/07/09 13:17:35;;;;;;;1.10;1.10;;;;;;;;;;5092266;28;20610;-79
2022/07/09 13:20:03;;;;;;;1.55;1.45;;;;;;;;;;5079862;28;20244;-79
2022/07/09 13:22:30;;;;;;;1.33;1.20;;;;;;;;;;5079381;28;20224;-77
2022/07/09 13:24:58;;;;;;;1.67;1.58;;;;;;;;;;5080310;28;20594;-79
2022/07/09 13:27:25;;;;;;;1.00;1.00;;;;;;;;;;5080506;28;20259;-79
2022/07/09 13:29:55;;;;;;;0.95;0.95;;;;;;;;;;5080160;28;20239;-79
2022/07/09 13:32:23;;;;;;;0.80;0.80;;;;;;;;;;5079929;28;20201;-78
2022/07/09 13:34:51;;;;;;;1.20;1.20;;;;;;;;;;5079547;28;20200;-78
2022/07/09 13:37:18;;;;;;;1.38;1.27;;;;;;;;;;5080155;28;20312;-78
2022/07/09 13:39:46;;;;;;;0.80;0.80;;;;;;;;;;5080328;28;20291;-78
2022/07/09 13:42:13;;;;;;;1.00;1.00;;;;;;;;;;5081339;28;20245;-78
2022/07/09 13:44:41;;;;;;;1.00;1.00;;;;;;;;;;5080420;28;20237;-78
2022/07/09 13:47:10;;;;;;;1.10;1.10;;;;;;;;;;5079314;28;20297;-79
2022/07/09 13:49:37;;;;;;;1.30;1.20;;;;;;;;;;5081531;28;20217;-79
2022/07/09 13:52:05;;;;;;;2.38;1.60;;;;;;;;;;5080201;28;20228;-78
2022/07/09 13:54:33;;;;;;;1.40;1.30;;;;;;;;;;5080886;28;20251;-78
2022/07/09 13:57:00;;;;;;;1.30;1.20;;;;;;;;;;5081198;28;20293;-79
2022/07/09 13:59:28;;;;;;;1.58;1.30;;;;;;;;;;5079031;28;20235;-78
2022/07/09 14:01:56;;;;;;;1.08;1.00;;;;;;;;;;5080056;28;20248;-78
2022/07/09 14:04:25;;;;;;;0.95;0.95;;;;;;;;;;5080908;28;20197;-79
2022/07/09 14:06:53;;;;;;;1.55;1.45;;;;;;;;;;5079345;28;20256;-78
2022/07/09 14:09:21;;;;;;;1.30;1.20;;;;;;;;;;5080074;28;20639;-78
2022/07/09 14:11:48;;;;;;;1.40;1.30;;;;;;;;;;5080518;28;20208;-78
2022/07/09 14:14:16;;;;;;;1.52;1.45;;;;;;;;;;5080544;28;20228;-78
2022/07/09 14:16:43;;;;;;;1.35;1.23;;;;;;;;;;5081406;28;20220;-78
2022/07/09 14:19:11;;;;;;;1.10;1.10;;;;;;;;;;5080543;28;20307;-79
2022/07/09 14:21:40;;;;;;;1.27;1.27;;;;;;;;;;5080592;28;20195;-79
2022/07/09 14:24:08;;;;;;;1.10;1.10;;;;;;;;;;5081572;28;20236;-77
2022/07/09 14:26:36;;;;;;;0.85;0.85;;;;;;;;;;5080188;28;20267;-79
2022/07/09 14:29:04;;;;;;;1.30;1.20;;;;;;;;;;5079989;28;20240;-79
2022/07/09 14:31:31;;;;;;;1.13;1.13;;;;;;;;;;5081418;28;20201;-79
2022/07/09 14:33:59;;;;;;;2.72;1.10;;;;;;;;;;5080179;28;20233;-77
2022/07/09 14:36:26;;;;;;;1.77;1.67;;;;;;;;;;5080350;28;20303;-78
2022/07/09 14:38:55;;;;;;;1.02;1.02;;;;;;;;;;5080190;28;20224;-78
2022/07/09 14:41:23;;;;;;;0.80;0.80;;;;;;;;;;5080414;28;20221;-78
2022/07/09 14:43:51;;;;;;;1.25;1.15;;;;;;;;;;5081035;28;20256;-78
2022/07/09 14:46:18;;;;;;;1.10;1.10;;;;;;;;;;5089214;23;20263;-82
2022/07/09 14:48:46;;;;;;;1.00;1.00;;;;;;;;;;5067864;28;20247;-82
2022/07/09 14:51:14;;;;;;;1.67;1.33;;;;;;;;;;5070504;28;20201;-82
2022/07/09 14:53:41;;;;;;;1.33;1.23;;;;;;;;;;5072629;28;20291;-82